Huvudsida
METAR-TAF:

METAR-TAF

Flygplatser :

M. O. Ranchi

Ranchi, Indien

latitud: 23-18-51N, longitud: 85-19-18E, höjd: 646 m

Aktuellt väderrapport

Denna rapport gjordes för 20 minuter sedan, klockan 11:00 UTC
Vind 8 kt från väst/sydväst
Temperatur 36°C
Fuktighet 42%
Tryck 1004 hPa
Sikt: 5000 m
Spridda moln på en höjd av 2000 ft
Brutna moln på en höjd av 10000 ft
lätt regn,

METAR: VERC 161100Z 24008KT 5000 -RA SCT020 BKN100 36/21 Q1004 NOSIG

Tid: 16:50 (11:20 UTC)

Väderprognos

Denna rapport gjordes för 3 timmar och 20 minuter sedan, klockan 08:00 UTC
Prognos gäller från 16 kl. 09 UTC till 16 kl. 18 UTC
Vind 9 kt från väst/nordväst
Sikt: 5000 m
Spridda moln på en höjd av 10000 ft
torrdis
Blir
från 16 kl. 10 UTC till 16 kl. 12 UTC
Få moln på en höjd av 2000 ft
Få moln på en höjd av 3000 ft, Cumulonimbus.
Spridda moln på en höjd av 10000 ft

TAF: VERC 160800Z 1609/1618 29009KT 5000 HZ SCT100 BECMG 1610/1612 FEW020 FEW030CB SCT100

Aktuella väderrapporter och prognoser från 4000 flygplatser (METAR- och TAF-rapporter).

De tillgängliga stationerna syns som gula och röda prickar på kartan.

För musen över prickarna för att se namnen på stationerna.

Klicka sedan för att få väderrapporter och prognoser.

För att ändra kartan: Klicka på de gröna knapparna med ett svart kors på för att zooma in; den gröna knappen med ett streck på för att zooma ut; eller på de gröna pilarna för angränsande kartor.


METAR-TAF: